createdAt,value
2023-05-18T00:00:02.652Z,20.82
2023-05-18T00:02:31.898Z,20.81
2023-05-18T00:05:02.313Z,20.81
2023-05-18T00:07:34.316Z,20.76
2023-05-18T00:10:02.000Z,20.78
2023-05-18T00:12:29.155Z,20.77
2023-05-18T00:14:56.124Z,20.76
2023-05-18T00:17:23.758Z,20.74
2023-05-18T00:19:50.891Z,20.75
2023-05-18T00:22:20.778Z,20.74
2023-05-18T00:24:47.973Z,20.73
2023-05-18T00:27:15.278Z,20.72
2023-05-18T00:29:42.340Z,20.69
2023-05-18T00:32:09.460Z,20.68
2023-05-18T00:34:37.457Z,20.67
2023-05-18T00:37:04.634Z,20.65
2023-05-18T00:39:31.659Z,20.64
2023-05-18T00:41:58.734Z,20.63
2023-05-18T00:44:25.845Z,20.62
2023-05-18T00:46:52.878Z,20.62
2023-05-18T00:49:19.870Z,20.60
2023-05-18T00:51:47.092Z,20.58
2023-05-18T00:54:14.116Z,20.58
2023-05-18T00:56:46.387Z,20.57
2023-05-18T00:59:13.619Z,20.55
2023-05-18T01:01:46.418Z,20.55
2023-05-18T01:04:16.471Z,20.54
2023-05-18T01:06:44.015Z,20.55
2023-05-18T01:09:12.157Z,20.55
2023-05-18T01:11:57.481Z,20.55
2023-05-18T01:14:30.740Z,20.55
2023-05-18T01:17:03.607Z,20.54
2023-05-18T01:19:43.126Z,20.53
2023-05-18T01:22:35.232Z,20.53
2023-05-18T01:25:14.933Z,20.52
2023-05-18T01:27:42.456Z,20.52
2023-05-18T01:30:09.590Z,20.52
2023-05-18T01:32:40.870Z,20.51
2023-05-18T01:35:09.086Z,20.51
2023-05-18T01:37:36.144Z,20.52
2023-05-18T01:40:05.650Z,20.53
2023-05-18T01:42:34.469Z,20.55
2023-05-18T01:45:08.344Z,20.55
2023-05-18T01:47:35.687Z,20.55
2023-05-18T01:50:10.013Z,20.54
2023-05-18T01:52:40.650Z,20.52
2023-05-18T01:55:08.130Z,20.50
2023-05-18T01:57:35.631Z,20.49
2023-05-18T02:00:04.357Z,20.47
2023-05-18T02:02:43.072Z,20.42
2023-05-18T02:05:12.616Z,20.38
2023-05-18T02:07:40.272Z,20.37
2023-05-18T02:10:09.273Z,20.34
2023-05-18T02:12:36.488Z,20.31
2023-05-18T02:15:05.774Z,20.29
2023-05-18T02:17:33.754Z,20.27
2023-05-18T02:20:00.969Z,20.24
2023-05-18T02:22:28.064Z,20.22
2023-05-18T02:24:55.132Z,20.20
2023-05-18T02:27:22.266Z,20.18
2023-05-18T02:29:49.410Z,20.17
2023-05-18T02:32:16.758Z,20.16
2023-05-18T02:34:46.493Z,20.14
2023-05-18T02:37:14.280Z,20.12
2023-05-18T02:39:41.396Z,20.11
2023-05-18T02:42:08.441Z,20.08
2023-05-18T02:44:35.495Z,20.04
2023-05-18T02:47:02.706Z,20.02
2023-05-18T02:49:29.880Z,20.02
2023-05-18T02:51:56.998Z,20.01
2023-05-18T02:54:24.037Z,20.00
2023-05-18T02:56:51.079Z,19.99
2023-05-18T02:59:31.522Z,19.98
2023-05-18T03:01:58.616Z,19.98
2023-05-18T03:04:26.304Z,19.98
2023-05-18T03:06:57.452Z,19.98
2023-05-18T03:09:24.739Z,19.97
2023-05-18T03:11:53.650Z,19.97
2023-05-18T03:14:20.780Z,19.97
2023-05-18T03:16:48.217Z,19.98
2023-05-18T03:19:16.287Z,19.97
2023-05-18T03:21:44.097Z,19.98
2023-05-18T03:24:14.723Z,19.98
2023-05-18T03:26:44.421Z,19.99
2023-05-18T03:29:13.747Z,20.00
2023-05-18T03:31:41.199Z,20.03
2023-05-18T03:34:08.459Z,20.14
2023-05-18T03:36:35.890Z,20.32
2023-05-18T03:39:03.085Z,20.53
2023-05-18T03:41:30.252Z,20.64
2023-05-18T03:43:57.360Z,20.70
2023-05-18T03:46:24.702Z,20.72
2023-05-18T03:48:54.096Z,20.75
2023-05-18T03:51:24.555Z,20.83
2023-05-18T03:53:51.551Z,20.94
2023-05-18T03:56:18.560Z,20.99
2023-05-18T03:58:45.790Z,20.99
2023-05-18T04:01:13.012Z,20.94
2023-05-18T04:03:40.930Z,20.91
2023-05-18T04:06:10.463Z,20.87
2023-05-18T04:08:37.660Z,20.85
2023-05-18T04:11:04.988Z,20.83
2023-05-18T04:13:32.057Z,20.81
2023-05-18T04:15:59.289Z,20.80
2023-05-18T04:18:30.435Z,20.80
2023-05-18T04:20:57.542Z,20.80
2023-05-18T04:23:24.531Z,20.80
2023-05-18T04:25:51.708Z,20.80
2023-05-18T04:28:19.394Z,20.80
2023-05-18T04:30:47.799Z,20.80
2023-05-18T04:33:16.444Z,20.80
2023-05-18T04:35:45.036Z,20.81
2023-05-18T04:38:13.046Z,20.83
2023-05-18T04:40:42.884Z,20.84
2023-05-18T04:43:11.820Z,20.84
2023-05-18T04:45:39.098Z,20.86
2023-05-18T04:48:06.864Z,20.89
2023-05-18T04:50:33.929Z,20.92
2023-05-18T04:53:02.634Z,20.97
2023-05-18T04:55:31.493Z,21.01
2023-05-18T04:58:03.589Z,21.05
2023-05-18T05:00:30.985Z,21.08
2023-05-18T05:02:58.640Z,21.11
2023-05-18T05:05:27.399Z,21.15
2023-05-18T05:07:54.810Z,21.18
2023-05-18T05:10:22.073Z,21.28
2023-05-18T05:12:50.076Z,21.43
2023-05-18T05:15:17.905Z,21.65
2023-05-18T05:17:46.956Z,21.91
2023-05-18T05:20:14.208Z,22.19
2023-05-18T05:22:42.185Z,22.46
2023-05-18T05:25:11.517Z,22.71
2023-05-18T05:27:38.617Z,22.94
2023-05-18T05:30:06.241Z,23.19
2023-05-18T05:32:36.488Z,23.42
2023-05-18T05:35:04.336Z,23.61
2023-05-18T05:37:31.905Z,23.78
2023-05-18T05:39:59.616Z,23.96
2023-05-18T05:42:27.803Z,24.17
2023-05-18T05:44:54.934Z,24.41
2023-05-18T05:47:22.917Z,24.59
2023-05-18T05:49:50.001Z,24.76
2023-05-18T05:52:17.087Z,24.96
2023-05-18T05:54:44.582Z,25.14
2023-05-18T05:57:11.974Z,25.34
2023-05-18T05:59:38.983Z,25.53
2023-05-18T06:02:06.070Z,25.63
2023-05-18T06:04:33.393Z,25.68
2023-05-18T06:07:01.899Z,25.70
2023-05-18T06:09:29.163Z,25.72
2023-05-18T06:11:56.601Z,25.80
2023-05-18T06:14:24.573Z,25.89
2023-05-18T06:16:52.013Z,25.90
2023-05-18T06:19:19.140Z,25.84
2023-05-18T06:21:46.517Z,25.82
2023-05-18T06:24:13.675Z,25.88
2023-05-18T06:26:45.423Z,25.91
2023-05-18T06:29:30.875Z,25.81
2023-05-18T06:32:07.410Z,25.67
2023-05-18T06:34:37.883Z,25.59
2023-05-18T06:37:05.732Z,25.61
2023-05-18T06:39:32.767Z,25.55
2023-05-18T06:42:00.193Z,25.51
2023-05-18T06:44:32.470Z,25.52
2023-05-18T06:47:06.003Z,25.55
2023-05-18T06:49:33.646Z,25.63
2023-05-18T06:52:00.725Z,25.62
2023-05-18T06:54:29.652Z,25.56
2023-05-18T06:56:56.873Z,25.49
2023-05-18T06:59:23.916Z,25.47
2023-05-18T07:01:51.097Z,25.51
2023-05-18T07:04:19.551Z,25.55
2023-05-18T07:06:46.801Z,25.60
2023-05-18T07:10:53.039Z,24.88
2023-05-18T07:13:20.682Z,25.61
2023-05-18T07:15:47.838Z,25.75
2023-05-18T07:18:15.559Z,25.76
2023-05-18T07:20:42.843Z,25.69
2023-05-18T07:23:09.935Z,25.63
2023-05-18T07:25:37.179Z,25.61
2023-05-18T07:28:04.720Z,25.57
2023-05-18T07:30:32.474Z,25.52
2023-05-18T07:32:59.462Z,25.49
2023-05-18T07:35:27.277Z,25.43
2023-05-18T07:37:54.363Z,25.29
2023-05-18T07:40:21.779Z,25.15
2023-05-18T07:46:13.857Z,24.99
2023-05-18T07:48:41.379Z,24.87
2023-05-18T07:51:08.994Z,24.76
2023-05-18T07:53:36.618Z,24.65
2023-05-18T07:56:05.355Z,24.55
2023-05-18T07:58:32.607Z,24.45
2023-05-18T08:00:59.819Z,24.38
2023-05-18T08:03:27.527Z,24.29
2023-05-18T08:05:54.742Z,24.30
2023-05-18T08:08:22.275Z,24.36
2023-05-18T08:10:49.541Z,24.37
2023-05-18T08:13:16.564Z,24.35
2023-05-18T08:15:43.828Z,24.33
2023-05-18T08:18:11.050Z,24.32
2023-05-18T08:20:39.277Z,24.34
2023-05-18T08:23:06.455Z,24.39
2023-05-18T08:25:33.765Z,24.41
2023-05-18T08:28:01.081Z,24.40
2023-05-18T08:30:28.354Z,24.41
2023-05-18T08:32:55.534Z,24.40
2023-05-18T08:35:23.067Z,24.38
2023-05-18T08:37:50.931Z,24.36
2023-05-18T08:40:18.207Z,24.37
2023-05-18T08:43:19.431Z,24.37
2023-05-18T08:45:48.935Z,24.46
2023-05-18T08:48:16.772Z,24.51
2023-05-18T08:50:44.056Z,24.58
2023-05-18T08:53:12.189Z,24.65
2023-05-18T08:55:39.959Z,24.71
2023-05-18T08:58:08.369Z,24.78
2023-05-18T09:00:35.782Z,24.87
2023-05-18T09:03:04.610Z,24.96
2023-05-18T09:05:32.216Z,25.02
2023-05-18T09:07:59.850Z,25.11
2023-05-18T09:10:27.062Z,25.18
2023-05-18T09:12:54.238Z,25.24
2023-05-18T09:15:22.317Z,25.28
2023-05-18T09:17:49.480Z,25.26
2023-05-18T09:20:18.249Z,25.24
2023-05-18T09:22:45.487Z,25.23
2023-05-18T09:25:12.687Z,25.23
2023-05-18T09:27:39.837Z,25.24
2023-05-18T09:30:11.048Z,25.28
2023-05-18T09:32:38.245Z,25.33
2023-05-18T09:35:06.875Z,25.38
2023-05-18T09:37:34.333Z,25.46
2023-05-18T09:40:06.369Z,25.52
2023-05-18T09:42:44.195Z,25.56
2023-05-18T09:45:24.060Z,25.63
2023-05-18T09:47:51.759Z,25.71
2023-05-18T09:50:22.843Z,25.76
2023-05-18T09:52:50.498Z,25.81
2023-05-18T09:55:18.678Z,25.85
2023-05-18T09:57:52.092Z,25.89
2023-05-18T10:00:20.811Z,25.92
2023-05-18T10:02:52.479Z,25.95
2023-05-18T10:05:36.334Z,25.99
2023-05-18T10:08:04.045Z,26.05
2023-05-18T10:10:31.307Z,26.11
2023-05-18T10:12:58.957Z,26.14
2023-05-18T10:15:26.632Z,26.17
2023-05-18T10:17:56.561Z,26.22
2023-05-18T10:20:27.982Z,26.28
2023-05-18T10:22:56.002Z,26.35
2023-05-18T10:25:24.104Z,26.40
2023-05-18T10:27:52.180Z,26.40
2023-05-18T10:30:19.430Z,26.37
2023-05-18T10:32:47.052Z,26.32
2023-05-18T10:35:14.553Z,26.33
2023-05-18T10:37:43.891Z,26.37
2023-05-18T10:40:12.107Z,26.43
2023-05-18T10:42:56.970Z,26.52
2023-05-18T10:45:24.551Z,26.59
2023-05-18T10:47:54.759Z,26.65
2023-05-18T10:50:23.242Z,26.68
2023-05-18T10:52:50.703Z,26.69
2023-05-18T10:55:18.057Z,26.70
2023-05-18T10:57:48.699Z,26.73
2023-05-18T11:00:16.582Z,26.76
2023-05-18T11:02:44.248Z,26.79
2023-05-18T11:05:11.945Z,26.84
2023-05-18T11:07:39.274Z,26.91
2023-05-18T11:10:11.246Z,26.99
2023-05-18T11:12:38.885Z,27.06
2023-05-18T11:15:06.965Z,27.12
2023-05-18T11:17:34.263Z,27.13
2023-05-18T11:20:12.058Z,27.14
2023-05-18T11:22:58.001Z,27.16
2023-05-18T11:25:26.042Z,27.17
2023-05-18T11:27:54.276Z,27.18
2023-05-18T11:30:31.473Z,27.20
2023-05-18T11:33:11.575Z,27.23
2023-05-18T11:36:12.084Z,27.28
2023-05-18T11:38:46.495Z,27.35
2023-05-18T11:41:44.981Z,27.42
2023-05-18T11:44:12.296Z,27.49
2023-05-18T11:46:51.978Z,27.54
2023-05-18T11:49:21.165Z,27.53
2023-05-18T11:52:07.718Z,27.50
2023-05-18T11:54:58.412Z,27.48
2023-05-18T11:57:34.471Z,27.46
2023-05-18T12:00:03.118Z,27.43
2023-05-18T12:02:39.784Z,27.46
2023-05-18T12:05:08.389Z,27.53
2023-05-18T12:07:36.514Z,27.58
2023-05-18T12:10:17.283Z,27.60
2023-05-18T12:12:44.430Z,27.58
2023-05-18T12:15:12.101Z,27.53
2023-05-18T12:17:43.160Z,27.46
2023-05-18T12:20:13.857Z,27.44
2023-05-18T12:22:44.468Z,27.45
2023-05-18T12:25:11.674Z,27.48
2023-05-18T12:27:43.862Z,27.47
2023-05-18T12:30:18.534Z,27.48
2023-05-18T12:32:50.517Z,27.46
2023-05-18T12:35:17.994Z,27.46
2023-05-18T12:37:46.089Z,27.45
2023-05-18T12:40:14.420Z,27.45
2023-05-18T12:42:54.427Z,27.47
2023-05-18T12:45:23.353Z,27.52
2023-05-18T12:47:54.762Z,27.56
2023-05-18T12:50:23.511Z,27.52
2023-05-18T12:52:50.978Z,27.51
2023-05-18T12:55:25.436Z,27.49
2023-05-18T12:58:06.367Z,27.47
2023-05-18T13:00:37.197Z,27.45
2023-05-18T13:03:09.257Z,27.45
2023-05-18T13:05:37.410Z,27.46
2023-05-18T13:08:04.506Z,27.43
2023-05-18T13:10:34.927Z,27.37
2023-05-18T13:13:03.980Z,27.33
2023-05-18T13:15:37.404Z,27.29
2023-05-18T13:18:06.127Z,27.27
2023-05-18T13:20:40.599Z,27.24
2023-05-18T13:23:09.347Z,27.31
2023-05-18T13:25:36.475Z,27.37
2023-05-18T13:28:04.162Z,27.38
2023-05-18T13:30:31.456Z,27.40
2023-05-18T13:32:59.797Z,27.39
2023-05-18T13:35:27.018Z,27.35
2023-05-18T13:37:54.133Z,27.26
2023-05-18T13:40:22.315Z,27.20
2023-05-18T13:42:49.339Z,27.16
2023-05-18T13:45:16.538Z,27.15
2023-05-18T13:47:45.988Z,27.14
2023-05-18T13:50:13.101Z,27.13
2023-05-18T13:52:40.215Z,27.10
2023-05-18T13:55:07.706Z,27.07
2023-05-18T13:57:35.173Z,27.07
2023-05-18T14:00:10.337Z,27.08
2023-05-18T14:02:41.277Z,27.07
2023-05-18T14:05:08.906Z,27.07
2023-05-18T14:07:36.943Z,27.07
2023-05-18T14:10:05.025Z,27.07
2023-05-18T14:12:32.532Z,27.11
2023-05-18T14:14:59.838Z,27.16
2023-05-18T14:17:27.712Z,27.18
2023-05-18T14:19:54.767Z,27.19
2023-05-18T14:22:22.236Z,27.21
2023-05-18T14:24:49.557Z,27.22
2023-05-18T14:27:16.614Z,27.21
2023-05-18T14:29:43.681Z,27.21
2023-05-18T14:32:10.762Z,27.21
2023-05-18T14:34:37.832Z,27.20
2023-05-18T14:37:05.007Z,27.19
2023-05-18T14:39:32.026Z,27.20
2023-05-18T14:41:59.043Z,27.23
2023-05-18T14:44:26.057Z,27.27
2023-05-18T14:46:53.269Z,27.29
2023-05-18T14:49:20.420Z,27.29
2023-05-18T14:51:47.535Z,27.31
2023-05-18T14:54:14.613Z,27.35
2023-05-18T14:56:41.629Z,27.37
2023-05-18T14:59:08.878Z,27.35
2023-05-18T15:01:35.947Z,27.30
2023-05-18T15:04:03.126Z,27.23
2023-05-18T15:06:30.133Z,27.16
2023-05-18T15:08:57.300Z,27.11
2023-05-18T15:11:24.392Z,27.06
2023-05-18T15:13:51.497Z,27.05
2023-05-18T15:16:19.886Z,27.05
2023-05-18T15:18:47.105Z,27.04
2023-05-18T15:21:14.163Z,27.03
2023-05-18T15:23:41.257Z,27.01
2023-05-18T15:26:09.305Z,26.98
2023-05-18T15:28:36.477Z,26.95
2023-05-18T15:31:03.535Z,26.92
2023-05-18T15:33:30.585Z,26.87
2023-05-18T15:35:57.684Z,26.81
2023-05-18T15:38:24.670Z,26.78
2023-05-18T15:40:51.698Z,26.73
2023-05-18T15:43:18.837Z,26.69
2023-05-18T15:45:46.030Z,26.65
2023-05-18T15:48:13.269Z,26.63
2023-05-18T15:50:40.286Z,26.62
2023-05-18T15:53:07.320Z,26.62
2023-05-18T15:55:34.314Z,26.63
2023-05-18T15:58:01.490Z,26.64
2023-05-18T16:00:29.823Z,26.64
2023-05-18T16:02:57.004Z,26.63
2023-05-18T16:05:24.090Z,26.60
2023-05-18T16:07:51.384Z,26.56
2023-05-18T16:10:18.757Z,26.52
2023-05-18T16:12:45.895Z,26.47
2023-05-18T16:15:12.917Z,26.44
2023-05-18T16:17:39.994Z,26.41
2023-05-18T16:20:07.725Z,26.39
2023-05-18T16:22:34.712Z,26.37
2023-05-18T16:25:01.764Z,26.33
2023-05-18T16:27:28.768Z,26.30
2023-05-18T16:29:55.996Z,26.27
2023-05-18T16:32:24.743Z,26.24
2023-05-18T16:34:52.132Z,26.21
2023-05-18T16:37:19.365Z,26.18
2023-05-18T16:39:46.405Z,26.14
2023-05-18T16:42:13.460Z,26.09
2023-05-18T16:44:40.586Z,26.05
2023-05-18T16:47:07.582Z,26.00
2023-05-18T16:49:34.653Z,25.96
2023-05-18T16:52:02.054Z,25.90
2023-05-18T16:54:29.079Z,25.85
2023-05-18T16:56:56.690Z,25.79
2023-05-18T16:59:24.529Z,25.73
2023-05-18T17:01:51.719Z,25.68
2023-05-18T17:04:18.884Z,25.62
2023-05-18T17:06:46.014Z,25.55
2023-05-18T17:09:13.480Z,25.50
2023-05-18T17:11:40.551Z,25.46
2023-05-18T17:14:07.587Z,25.40
2023-05-18T17:16:40.407Z,25.35
2023-05-18T17:19:07.981Z,25.29
2023-05-18T17:21:35.021Z,25.22
2023-05-18T17:24:02.025Z,25.17
2023-05-18T17:26:33.482Z,25.11
2023-05-18T17:29:00.573Z,25.05
2023-05-18T17:31:27.649Z,25.01
2023-05-18T17:33:54.835Z,24.96
2023-05-18T17:36:22.453Z,24.90
2023-05-18T17:38:49.457Z,24.85
2023-05-18T17:41:16.514Z,24.80
2023-05-18T17:43:43.528Z,24.76
2023-05-18T17:46:10.543Z,24.73
2023-05-18T17:48:37.546Z,24.69
2023-05-18T17:51:04.599Z,24.65
2023-05-18T17:53:31.581Z,24.60
2023-05-18T17:55:58.561Z,24.56
2023-05-18T17:58:25.544Z,24.53
2023-05-18T18:00:52.721Z,24.50
2023-05-18T18:03:21.050Z,24.47
2023-05-18T18:05:48.120Z,24.44
2023-05-18T18:08:16.417Z,24.41
2023-05-18T18:10:43.470Z,24.39
2023-05-18T18:13:10.494Z,24.37
2023-05-18T18:15:37.487Z,24.34
2023-05-18T18:18:04.697Z,24.32
2023-05-18T18:20:36.692Z,24.29
2023-05-18T18:23:03.866Z,24.26
2023-05-18T18:25:31.058Z,24.23
2023-05-18T18:27:58.354Z,24.22
2023-05-18T18:30:25.524Z,24.20
2023-05-18T18:32:52.659Z,24.17
2023-05-18T18:35:19.741Z,24.14
2023-05-18T18:37:47.497Z,24.11
2023-05-18T18:40:18.043Z,24.10
2023-05-18T18:42:45.434Z,24.07
2023-05-18T18:45:12.495Z,24.05
2023-05-18T18:47:39.644Z,24.04
2023-05-18T18:50:07.456Z,24.03
2023-05-18T18:52:34.507Z,24.00
2023-05-18T18:55:01.564Z,23.97
2023-05-18T18:57:28.598Z,23.93
2023-05-18T18:59:56.447Z,23.93
2023-05-18T19:02:23.898Z,23.91
2023-05-18T19:04:51.050Z,23.88
2023-05-18T19:07:18.328Z,23.86
2023-05-18T19:09:45.690Z,23.84
2023-05-18T19:12:12.804Z,23.83
2023-05-18T19:14:39.918Z,23.77
2023-05-18T19:17:07.166Z,23.76
2023-05-18T19:19:34.180Z,23.72
2023-05-18T19:22:01.230Z,23.71
2023-05-18T19:24:28.399Z,23.71
2023-05-18T19:26:55.563Z,23.68
2023-05-18T19:29:25.166Z,23.67
2023-05-18T19:31:55.939Z,23.64
2023-05-18T19:34:23.219Z,23.62
2023-05-18T19:36:50.657Z,23.60
2023-05-18T19:39:18.017Z,23.59
2023-05-18T19:41:45.493Z,23.56
2023-05-18T19:44:12.990Z,23.52
2023-05-18T19:46:40.013Z,23.50
2023-05-18T19:49:07.279Z,23.46
2023-05-18T19:51:34.380Z,23.40
2023-05-18T19:54:01.482Z,23.33
2023-05-18T19:56:28.530Z,23.26
2023-05-18T19:58:55.528Z,23.19
2023-05-18T20:01:24.946Z,23.14
2023-05-18T20:03:52.104Z,23.10
2023-05-18T20:06:19.579Z,23.05
2023-05-18T20:08:46.825Z,23.00
2023-05-18T20:11:14.918Z,22.96
2023-05-18T20:13:46.174Z,22.87
2023-05-18T20:16:13.844Z,22.81
2023-05-18T20:18:41.002Z,22.78
2023-05-18T20:21:08.851Z,22.74
2023-05-18T20:23:35.877Z,22.74
2023-05-18T20:26:02.927Z,22.69
2023-05-18T20:28:31.666Z,22.65
2023-05-18T20:30:59.384Z,22.66
2023-05-18T20:33:26.683Z,22.62
2023-05-18T20:35:53.735Z,22.59
2023-05-18T20:38:20.842Z,22.58
2023-05-18T20:40:51.166Z,22.57
2023-05-18T20:43:18.387Z,22.59
2023-05-18T20:45:49.536Z,22.62
2023-05-18T20:48:24.687Z,22.58
2023-05-18T20:50:52.423Z,22.60
2023-05-18T20:53:19.769Z,22.61
2023-05-18T20:55:47.821Z,22.60
2023-05-18T20:58:15.344Z,22.54
2023-05-18T21:00:42.394Z,22.53
2023-05-18T21:03:09.573Z,22.54
2023-05-18T21:05:36.774Z,22.52
2023-05-18T21:08:03.910Z,22.51
2023-05-18T21:10:32.282Z,22.48
2023-05-18T21:12:59.449Z,22.47
2023-05-18T21:15:26.540Z,22.45
2023-05-18T21:17:55.016Z,22.45
2023-05-18T21:20:22.207Z,22.44
2023-05-18T21:22:49.255Z,22.43
2023-05-18T21:25:17.922Z,22.41
2023-05-18T21:27:44.910Z,22.40
2023-05-18T21:30:13.268Z,22.45
2023-05-18T21:32:40.993Z,22.46
2023-05-18T21:35:08.139Z,22.46
2023-05-18T21:37:35.187Z,22.46
2023-05-18T21:40:02.196Z,22.40
2023-05-18T21:42:29.195Z,22.39
2023-05-18T21:44:56.247Z,22.39
2023-05-18T21:47:23.773Z,22.38
2023-05-18T21:49:50.807Z,22.37
2023-05-18T21:52:17.846Z,22.34
2023-05-18T21:54:44.818Z,22.25
2023-05-18T21:57:11.813Z,22.23
2023-05-18T21:59:38.786Z,22.26
2023-05-18T22:02:05.913Z,22.34
2023-05-18T22:04:32.992Z,22.34
2023-05-18T22:07:01.063Z,22.39
2023-05-18T22:09:28.972Z,22.29
2023-05-18T22:11:56.067Z,22.21
2023-05-18T22:14:23.064Z,22.27
2023-05-18T22:16:50.113Z,22.29
2023-05-18T22:19:17.166Z,22.33
2023-05-18T22:21:44.224Z,22.32
2023-05-18T22:24:11.217Z,22.32
2023-05-18T22:26:38.240Z,22.26
2023-05-18T22:29:05.299Z,22.22
2023-05-18T22:31:32.874Z,22.23
2023-05-18T22:33:59.999Z,22.22
2023-05-18T22:36:27.622Z,22.21
2023-05-18T22:38:54.651Z,22.21
2023-05-18T22:41:22.828Z,22.19
2023-05-18T22:43:49.843Z,22.18
2023-05-18T22:46:16.849Z,22.17
2023-05-18T22:48:44.230Z,22.16
2023-05-18T22:51:11.233Z,22.05
2023-05-18T22:53:38.208Z,22.07
2023-05-18T22:56:06.078Z,22.13
2023-05-18T22:58:33.425Z,22.13
2023-05-18T23:01:00.592Z,22.14
2023-05-18T23:03:27.647Z,22.16
2023-05-18T23:05:54.667Z,22.17
2023-05-18T23:08:21.679Z,22.18
2023-05-18T23:10:50.817Z,22.16
2023-05-18T23:13:19.735Z,22.12
2023-05-18T23:15:47.922Z,22.11
2023-05-18T23:18:15.590Z,22.06
2023-05-18T23:20:42.888Z,22.13
2023-05-18T23:23:09.877Z,22.11
2023-05-18T23:25:36.877Z,22.07
2023-05-18T23:28:03.930Z,22.00
2023-05-18T23:30:32.297Z,21.95
2023-05-18T23:33:01.041Z,21.89
2023-05-18T23:35:28.540Z,21.83
2023-05-18T23:37:55.548Z,21.77
2023-05-18T23:40:22.552Z,21.73
2023-05-18T23:42:49.746Z,21.68
2023-05-18T23:45:17.131Z,21.64
2023-05-18T23:47:44.455Z,21.62
2023-05-18T23:50:12.190Z,21.61
2023-05-18T23:52:39.234Z,21.61
2023-05-18T23:55:07.379Z,21.62
2023-05-18T23:57:34.627Z,21.63
